Time;durP1;ratioP1;P1;durP2;ratioP2;P2;SDS_P1;SDS_P2;PMS_P1;PMS_P2;Temp;Humidity;BMP_temperature;BMP_pressure;BME280_temperature;BME280_humidity;BME280_pressure;Samples;Min_cycle;Max_cycle;Signal;HPM_P1;HPM_P2
2023/01/14 00:01:11;;;;;;;2.97;0.75;;;;;;;;;;5032200;28;20107;-50
2023/01/14 00:03:36;;;;;;;3.33;0.55;;;;;;;;;;5036630;28;20014;-50
2023/01/14 00:06:01;;;;;;;7.27;1.03;;;;;;;;;;5048482;28;20028;-51
2023/01/14 00:08:27;;;;;;;3.30;0.63;;;;;;;;;;5052826;28;20485;-49
2023/01/14 00:10:52;;;;;;;4.90;1.00;;;;;;;;;;5041147;28;20559;-50
2023/01/14 00:13:17;;;;;;;4.70;1.00;;;;;;;;;;5040399;28;20028;-52
2023/01/14 00:15:56;;;;;;;5.22;0.90;;;;;;;;;;5045574;28;20078;-50
2023/01/14 00:18:21;;;;;;;;;;;;;;;;;;5022253;28;20414;-50
2023/01/14 00:21:05;;;;;;;3.38;0.60;;;;;;;;;;5040290;28;20361;-50
2023/01/14 00:23:31;;;;;;;4.93;0.65;;;;;;;;;;5025850;28;20033;-51
2023/01/14 00:26:00;;;;;;;3.20;0.60;;;;;;;;;;5027035;28;20029;-52
2023/01/14 00:28:26;;;;;;;3.78;0.88;;;;;;;;;;5043157;28;20071;-54
2023/01/14 00:30:51;;;;;;;4.77;0.90;;;;;;;;;;5052467;28;20060;-51
2023/01/14 00:33:16;;;;;;;3.65;0.70;;;;;;;;;;5039940;28;20502;-53
2023/01/14 00:35:41;;;;;;;4.60;0.65;;;;;;;;;;5030910;28;20017;-54
2023/01/14 00:38:06;;;;;;;3.27;0.60;;;;;;;;;;5031844;28;20115;-55
2023/01/14 00:40:31;;;;;;;4.20;0.80;;;;;;;;;;5032320;28;20109;-51
2023/01/14 00:42:57;;;;;;;5.55;0.70;;;;;;;;;;5038717;28;20016;-55
2023/01/14 00:45:22;;;;;;;5.43;0.70;;;;;;;;;;5039990;28;20028;-62
2023/01/14 00:47:47;;;;;;;4.78;0.75;;;;;;;;;;5046093;28;20359;-54
2023/01/14 00:50:12;;;;;;;3.55;0.60;;;;;;;;;;5051867;28;20518;-51
2023/01/14 00:52:37;;;;;;;5.63;0.90;;;;;;;;;;5046932;28;20025;-50
2023/01/14 00:55:02;;;;;;;4.22;0.77;;;;;;;;;;5031414;28;20080;-52
2023/01/14 00:57:27;;;;;;;5.70;0.97;;;;;;;;;;5031411;28;20049;-62
2023/01/14 00:59:53;;;;;;;4.67;0.70;;;;;;;;;;5038144;28;20535;-51
2023/01/14 01:02:18;;;;;;;4.35;0.80;;;;;;;;;;5033344;28;20047;-50
2023/01/14 01:04:43;;;;;;;3.37;0.70;;;;;;;;;;5031451;28;20189;-51
2023/01/14 01:07:09;;;;;;;3.10;0.67;;;;;;;;;;5031853;28;20032;-52
2023/01/14 01:09:34;;;;;;;3.97;0.98;;;;;;;;;;5033060;28;20041;-51
2023/01/14 01:11:59;;;;;;;6.40;0.70;;;;;;;;;;5030749;28;20459;-51
2023/01/14 01:14:24;;;;;;;5.93;0.77;;;;;;;;;;5027817;28;20474;-50
2023/01/14 01:16:50;;;;;;;5.13;0.90;;;;;;;;;;5028188;28;20500;-48
2023/01/14 01:19:15;;;;;;;4.17;0.70;;;;;;;;;;5025699;28;20021;-50
2023/01/14 01:21:40;;;;;;;3.65;0.85;;;;;;;;;;5020686;28;20026;-51
2023/01/14 01:24:05;;;;;;;5.27;0.90;;;;;;;;;;5038433;28;20025;-51
2023/01/14 01:26:30;;;;;;;6.97;0.73;;;;;;;;;;5040528;28;20019;-50
2023/01/14 01:28:56;;;;;;;5.32;0.73;;;;;;;;;;5042196;28;20071;-50
2023/01/14 01:31:22;;;;;;;3.63;0.80;;;;;;;;;;5034801;28;20379;-50
2023/01/14 01:33:48;;;;;;;2.97;0.60;;;;;;;;;;5036581;28;20408;-50
2023/01/14 01:36:14;;;;;;;3.13;0.50;;;;;;;;;;5032083;28;20087;-51
2023/01/14 01:38:39;;;;;;;6.93;0.80;;;;;;;;;;5038862;28;20115;-50
2023/01/14 01:41:05;;;;;;;4.70;0.70;;;;;;;;;;5038453;28;20402;-50
2023/01/14 01:43:31;;;;;;;5.20;0.80;;;;;;;;;;5030094;28;20097;-51
2023/01/14 01:45:59;;;;;;;4.28;0.60;;;;;;;;;;5042159;28;20052;-48
2023/01/14 01:48:39;;;;;;;3.70;0.50;;;;;;;;;;5037462;28;20443;-51
2023/01/14 01:51:11;;;;;;;3.08;0.70;;;;;;;;;;5025326;28;20056;-49
2023/01/14 01:53:38;;;;;;;6.53;1.05;;;;;;;;;;5037152;28;20017;-49
2023/01/14 01:56:05;;;;;;;3.90;0.70;;;;;;;;;;5043652;28;20023;-50
2023/01/14 01:58:31;;;;;;;3.42;0.75;;;;;;;;;;5031375;28;20071;-49
2023/01/14 02:00:56;;;;;;;4.03;0.50;;;;;;;;;;5035527;28;20051;-51
2023/01/14 02:03:25;;;;;;;3.50;0.50;;;;;;;;;;5041169;28;20048;-49
2023/01/14 02:05:51;;;;;;;6.22;0.90;;;;;;;;;;5029710;28;20448;-50
2023/01/14 02:08:16;;;;;;;4.25;0.75;;;;;;;;;;5037746;28;20362;-49
2023/01/14 02:10:49;;;;;;;3.22;0.65;;;;;;;;;;5038588;28;20033;-50
2023/01/14 02:13:26;;;;;;;5.65;0.63;;;;;;;;;;5040685;28;20029;-50
2023/01/14 02:15:56;;;;;;;2.78;0.60;;;;;;;;;;5041869;28;20016;-49
2023/01/14 02:18:28;;;;;;;3.92;0.65;;;;;;;;;;5039282;28;20539;-51
2023/01/14 02:21:12;;;;;;;6.20;0.73;;;;;;;;;;5031986;28;20029;-49
2023/01/14 02:23:50;;;;;;;4.78;0.73;;;;;;;;;;5029704;28;20025;-51
2023/01/14 02:26:26;;;;;;;3.03;0.50;;;;;;;;;;5037734;28;20029;-50
2023/01/14 02:29:11;;;;;;;4.20;0.68;;;;;;;;;;5040631;28;20115;-50
2023/01/14 02:31:43;;;;;;;5.90;0.85;;;;;;;;;;5008272;28;20129;-50
2023/01/14 02:34:27;;;;;;;4.55;0.80;;;;;;;;;;5032009;28;20013;-50
2023/01/14 02:36:53;;;;;;;;;;;;;;;;;;5038460;28;20475;-49
2023/01/14 02:39:21;;;;;;;2.88;0.50;;;;;;;;;;5035409;28;20370;-50
2023/01/14 02:44:37;;;;;;;5.63;1.35;;;;;;;;;;5034410;28;20040;-50
2023/01/14 02:47:09;;;;;;;4.60;0.75;;;;;;;;;;5042915;28;20087;-50
2023/01/14 02:49:36;;;;;;;4.15;0.70;;;;;;;;;;5014787;28;20034;-51
2023/01/14 02:52:05;;;;;;;5.13;0.80;;;;;;;;;;5019139;28;20083;-51
2023/01/14 02:54:30;;;;;;;3.95;0.68;;;;;;;;;;5034598;28;20032;-51
2023/01/14 02:56:59;;;;;;;6.97;0.90;;;;;;;;;;5034538;28;20017;-49
2023/01/14 02:59:39;;;;;;;5.10;0.70;;;;;;;;;;5034502;28;20490;-50
2023/01/14 03:02:23;;;;;;;5.75;0.60;;;;;;;;;;5033434;28;20078;-50
2023/01/14 03:04:48;;;;;;;3.70;0.68;;;;;;;;;;5048452;28;20390;-50
2023/01/14 03:07:16;;;;;;;5.35;0.90;;;;;;;;;;5039803;28;20029;-51
2023/01/14 03:10:00;;;;;;;3.92;0.65;;;;;;;;;;5033840;28;20039;-49
2023/01/14 03:12:38;;;;;;;4.43;0.52;;;;;;;;;;5033922;28;20466;-49
2023/01/14 03:15:03;;;;;;;;;;;;;;;;;;5041261;28;20020;-51
2023/01/14 03:17:36;;;;;;;4.45;0.65;;;;;;;;;;5037134;28;19909;-50
2023/01/14 03:20:19;;;;;;;4.60;0.60;;;;;;;;;;5039174;28;20025;-49
2023/01/14 03:22:45;;;;;;;3.55;0.65;;;;;;;;;;5053428;28;20467;-50
2023/01/14 03:25:12;;;;;;;3.65;0.70;;;;;;;;;;5052217;28;20044;-51
2023/01/14 03:30:08;;;;;;;3.15;0.50;;;;;;;;;;5031501;28;20052;-56
2023/01/14 03:32:42;;;;;;;4.10;0.60;;;;;;;;;;5032825;28;20378;-58
2023/01/14 03:35:13;;;;;;;7.40;0.90;;;;;;;;;;5034599;28;20017;-57
2023/01/14 03:37:41;;;;;;;6.03;0.75;;;;;;;;;;5040176;28;20017;-57
2023/01/14 03:40:08;;;;;;;3.78;0.85;;;;;;;;;;5037868;28;20020;-58
2023/01/14 03:42:37;;;;;;;4.05;0.68;;;;;;;;;;5033756;28;20024;-57
2023/01/14 03:45:08;;;;;;;7.55;0.80;;;;;;;;;;5021125;28;20018;-55
2023/01/14 03:47:34;;;;;;;4.72;0.80;;;;;;;;;;5026049;28;20475;-55
2023/01/14 03:50:00;;;;;;;4.30;0.70;;;;;;;;;;5031492;28;20029;-55
2023/01/14 03:52:34;;;;;;;4.70;0.60;;;;;;;;;;5041625;28;20095;-56
2023/01/14 03:55:01;;;;;;;2.85;0.45;;;;;;;;;;5033388;28;20033;-54
2023/01/14 03:57:43;;;;;;;5.57;0.70;;;;;;;;;;5032717;28;20010;-54
2023/01/14 04:00:11;;;;;;;4.47;0.68;;;;;;;;;;5032512;28;20018;-55
2023/01/14 04:02:38;;;;;;;4.60;0.70;;;;;;;;;;5033260;28;20040;-55
2023/01/14 04:05:03;;;;;;;6.15;0.90;;;;;;;;;;5032553;28;20017;-56
2023/01/14 04:07:28;;;;;;;3.15;0.68;;;;;;;;;;5030978;28;20021;-56
2023/01/14 04:09:54;;;;;;;6.53;0.90;;;;;;;;;;5038193;28;20029;-56
2023/01/14 04:12:19;;;;;;;4.00;0.60;;;;;;;;;;5034015;28;20060;-55
2023/01/14 04:17:28;;;;;;;6.38;0.80;;;;;;;;;;5032766;28;20569;-55
2023/01/14 04:19:53;;;;;;;5.07;0.73;;;;;;;;;;5033848;28;20462;-57
2023/01/14 04:22:18;;;;;;;3.33;0.60;;;;;;;;;;5031349;28;20097;-56
2023/01/14 04:24:43;;;;;;;4.95;0.80;;;;;;;;;;5030032;28;20029;-56
2023/01/14 04:27:08;;;;;;;6.65;0.80;;;;;;;;;;5040342;28;20381;-56
2023/01/14 04:29:33;;;;;;;5.67;0.70;;;;;;;;;;5032010;28;20061;-56
2023/01/14 04:31:59;;;;;;;4.85;0.70;;;;;;;;;;5032531;28;20143;-56
2023/01/14 04:34:24;;;;;;;3.97;0.70;;;;;;;;;;5031943;28;20034;-55
2023/01/14 04:36:49;;;;;;;5.55;0.75;;;;;;;;;;5032060;28;20459;-56
2023/01/14 04:39:14;;;;;;;4.78;0.80;;;;;;;;;;5030566;28;20504;-56
2023/01/14 04:44:23;;;;;;;6.72;1.25;;;;;;;;;;5031632;28;20072;-56
2023/01/14 04:46:48;;;;;;;5.22;0.70;;;;;;;;;;5031672;28;20025;-55
2023/01/14 04:49:13;;;;;;;4.40;0.70;;;;;;;;;;5031849;28;20033;-54
2023/01/14 04:51:39;;;;;;;3.65;0.80;;;;;;;;;;5030781;28;20382;-55
2023/01/14 04:54:04;;;;;;;4.47;0.80;;;;;;;;;;5035952;28;20063;-56
2023/01/14 04:56:29;;;;;;;6.80;0.90;;;;;;;;;;5030176;28;20044;-56
2023/01/14 04:58:54;;;;;;;6.40;0.87;;;;;;;;;;5038010;28;20520;-55
2023/01/14 05:01:19;;;;;;;3.60;0.60;;;;;;;;;;5032990;28;20550;-55
2023/01/14 05:03:44;;;;;;;5.77;1.00;;;;;;;;;;5031409;28;20505;-56
2023/01/14 05:06:10;;;;;;;4.47;0.70;;;;;;;;;;5031309;28;20940;-54
2023/01/14 05:08:35;;;;;;;4.97;0.70;;;;;;;;;;5031232;28;20025;-55
2023/01/14 05:11:00;;;;;;;4.13;0.60;;;;;;;;;;5031418;28;20036;-55
2023/01/14 05:13:25;;;;;;;4.40;0.80;;;;;;;;;;5028529;28;20017;-55
2023/01/14 05:15:50;;;;;;;6.00;0.90;;;;;;;;;;5037447;28;20025;-55
2023/01/14 05:18:16;;;;;;;4.27;0.67;;;;;;;;;;5031779;28;20051;-55
2023/01/14 05:20:41;;;;;;;2.83;0.55;;;;;;;;;;5031242;28;20120;-56
2023/01/14 05:23:10;;;;;;;7.20;0.90;;;;;;;;;;5031458;28;20025;-56
2023/01/14 05:25:35;;;;;;;6.60;0.60;;;;;;;;;;5030473;28;20057;-56
2023/01/14 05:28:01;;;;;;;7.70;0.90;;;;;;;;;;5028980;28;20053;-55
2023/01/14 05:30:27;;;;;;;4.00;0.70;;;;;;;;;;5033547;28;20033;-56
2023/01/14 05:32:52;;;;;;;8.85;0.90;;;;;;;;;;5039001;28;20048;-56
2023/01/14 05:35:17;;;;;;;6.33;0.80;;;;;;;;;;5030510;28;20029;-56
2023/01/14 05:37:42;;;;;;;5.63;0.70;;;;;;;;;;5030730;28;20018;-56
2023/01/14 05:40:08;;;;;;;5.43;0.87;;;;;;;;;;5030910;28;20033;-55
2023/01/14 05:48:01;;;;;;;5.38;0.80;;;;;;;;;;5038879;28;20501;-56
2023/01/14 05:50:26;;;;;;;4.78;0.90;;;;;;;;;;5029987;28;20034;-56
2023/01/14 05:52:51;;;;;;;5.13;0.80;;;;;;;;;;5029334;28;20071;-56
2023/01/14 05:55:16;;;;;;;6.87;0.87;;;;;;;;;;5036585;28;20474;-56
2023/01/14 05:57:41;;;;;;;6.82;0.90;;;;;;;;;;5035046;28;20021;-54
2023/01/14 06:00:07;;;;;;;3.70;0.60;;;;;;;;;;5026224;28;20074;-56
2023/01/14 06:08:03;;;;;;;4.32;0.60;;;;;;;;;;5028466;28;19967;-56
2023/01/14 06:10:28;;;;;;;7.80;0.77;;;;;;;;;;5025085;28;20034;-54
2023/01/14 06:13:05;;;;;;;6.03;0.80;;;;;;;;;;5024150;28;20105;-54
2023/01/14 06:15:35;;;;;;;3.60;0.60;;;;;;;;;;5027871;28;20037;-57
2023/01/14 06:18:13;;;;;;;5.43;0.75;;;;;;;;;;5030247;28;20040;-56
2023/01/14 06:20:39;;;;;;;6.07;0.65;;;;;;;;;;5026273;28;20028;-56
2023/01/14 06:23:05;;;;;;;7.47;1.08;;;;;;;;;;5029256;28;20013;-57
2023/01/14 06:25:31;;;;;;;4.97;0.60;;;;;;;;;;5027984;28;20033;-58
2023/01/14 06:27:56;;;;;;;4.50;0.60;;;;;;;;;;5022863;28;20398;-56
2023/01/14 06:30:21;;;;;;;6.18;0.93;;;;;;;;;;5025517;28;20053;-56
2023/01/14 06:32:46;;;;;;;7.27;0.80;;;;;;;;;;5027560;28;20030;-55
2023/01/14 06:35:12;;;;;;;6.57;0.90;;;;;;;;;;5027356;28;20025;-59
2023/01/14 06:37:37;;;;;;;4.90;0.87;;;;;;;;;;5022924;28;20471;-55
2023/01/14 06:40:02;;;;;;;7.00;0.82;;;;;;;;;;5026492;28;20060;-55
2023/01/14 06:42:27;;;;;;;6.43;0.80;;;;;;;;;;5028473;28;20029;-54
2023/01/14 06:44:52;;;;;;;4.82;0.60;;;;;;;;;;5023669;28;20018;-56
2023/01/14 06:47:17;;;;;;;6.38;0.80;;;;;;;;;;5024322;28;20036;-55
2023/01/14 06:49:42;;;;;;;6.40;0.73;;;;;;;;;;5026291;28;20436;-56
2023/01/14 06:52:09;;;;;;;7.00;0.90;;;;;;;;;;5032411;28;20105;-55
2023/01/14 06:54:34;;;;;;;6.47;0.90;;;;;;;;;;5026078;28;20437;-56
2023/01/14 06:56:59;;;;;;;6.45;0.77;;;;;;;;;;5028779;28;20022;-58
2023/01/14 06:59:24;;;;;;;4.82;0.80;;;;;;;;;;5028961;28;20026;-55
2023/01/14 07:01:49;;;;;;;7.37;0.90;;;;;;;;;;5025064;28;20029;-56
2023/01/14 07:04:15;;;;;;;5.97;0.85;;;;;;;;;;5028188;28;20033;-56
2023/01/14 07:06:40;;;;;;;3.53;0.63;;;;;;;;;;5027983;28;20080;-55
2023/01/14 07:09:05;;;;;;;5.45;0.82;;;;;;;;;;5027878;28;20024;-58
2023/01/14 07:11:31;;;;;;;6.55;0.90;;;;;;;;;;5029388;28;20045;-57
2023/01/14 07:13:57;;;;;;;5.37;0.83;;;;;;;;;;5024428;28;20474;-55
2023/01/14 07:16:22;;;;;;;6.37;0.90;;;;;;;;;;5029101;28;20029;-58
2023/01/14 07:18:47;;;;;;;4.90;1.07;;;;;;;;;;5027785;28;20448;-57
2023/01/14 07:21:12;;;;;;;6.32;1.10;;;;;;;;;;5025848;28;20021;-56
2023/01/14 07:23:37;;;;;;;5.70;0.85;;;;;;;;;;5029681;28;20514;-59
2023/01/14 07:26:02;;;;;;;5.93;0.82;;;;;;;;;;5025259;28;20324;-56
2023/01/14 07:28:28;;;;;;;4.40;0.57;;;;;;;;;;5023804;28;20089;-58
2023/01/14 07:30:54;;;;;;;6.82;0.90;;;;;;;;;;5022164;28;20029;-56
2023/01/14 07:33:21;;;;;;;6.13;1.20;;;;;;;;;;5017097;28;20743;-56
2023/01/14 07:35:51;;;;;;;4.00;0.70;;;;;;;;;;5024818;28;20021;-55
2023/01/14 07:38:16;;;;;;;5.03;0.80;;;;;;;;;;5022211;28;20026;-56
2023/01/14 07:40:41;;;;;;;7.00;1.15;;;;;;;;;;5029331;28;20079;-56
2023/01/14 07:43:07;;;;;;;5.00;0.75;;;;;;;;;;5029417;28;20039;-58
2023/01/14 07:45:32;;;;;;;7.97;1.17;;;;;;;;;;5026157;28;20108;-56
2023/01/14 07:47:57;;;;;;;5.57;1.08;;;;;;;;;;5022946;28;20096;-56
2023/01/14 07:50:23;;;;;;;6.78;1.10;;;;;;;;;;5026611;28;20034;-55
2023/01/14 07:52:56;;;;;;;6.33;1.00;;;;;;;;;;5020629;28;20025;-59
2023/01/14 07:55:21;;;;;;;4.25;1.13;;;;;;;;;;5031197;28;20027;-56
2023/01/14 07:57:47;;;;;;;6.40;1.10;;;;;;;;;;5029390;28;20025;-55
2023/01/14 08:00:13;;;;;;;4.18;0.77;;;;;;;;;;5025468;28;20062;-58
2023/01/14 08:02:38;;;;;;;4.60;0.90;;;;;;;;;;5027940;28;20352;-57
2023/01/14 08:05:03;;;;;;;9.13;1.02;;;;;;;;;;5029167;28;20052;-56
2023/01/14 08:07:28;;;;;;;5.75;1.10;;;;;;;;;;5026938;28;20018;-57
2023/01/14 08:09:54;;;;;;;5.85;1.00;;;;;;;;;;5021278;28;20084;-56
2023/01/14 08:12:19;;;;;;;5.53;0.80;;;;;;;;;;5030945;28;20049;-58
2023/01/14 08:14:44;;;;;;;8.20;1.23;;;;;;;;;;5034864;28;20024;-58
2023/01/14 08:17:09;;;;;;;9.30;1.10;;;;;;;;;;5027624;28;20080;-57
2023/01/14 08:19:34;;;;;;;7.35;0.95;;;;;;;;;;5022650;28;20025;-58
2023/01/14 08:21:59;;;;;;;4.38;0.93;;;;;;;;;;5025726;28;20036;-58
2023/01/14 08:24:25;;;;;;;5.95;0.90;;;;;;;;;;5025533;28;20038;-56
2023/01/14 08:26:50;;;;;;;5.00;1.03;;;;;;;;;;5024833;28;20398;-57
2023/01/14 08:29:17;;;;;;;4.82;0.93;;;;;;;;;;5028440;28;20041;-59
2023/01/14 08:31:43;;;;;;;7.55;1.30;;;;;;;;;;5031639;28;20025;-56
2023/01/14 08:34:08;;;;;;;5.22;1.20;;;;;;;;;;5039291;28;20029;-56
2023/01/14 08:36:33;;;;;;;5.60;1.00;;;;;;;;;;5028525;28;20096;-57
2023/01/14 08:38:58;;;;;;;7.30;1.40;;;;;;;;;;5027191;28;20021;-56
2023/01/14 08:41:23;;;;;;;7.38;1.30;;;;;;;;;;5038828;28;20390;-59
2023/01/14 08:43:49;;;;;;;6.83;1.30;;;;;;;;;;5037524;28;20024;-57
2023/01/14 08:46:16;;;;;;;6.43;1.20;;;;;;;;;;5036460;28;20017;-57
2023/01/14 08:48:42;;;;;;;7.30;1.25;;;;;;;;;;5031710;28;20025;-59
2023/01/14 08:51:08;;;;;;;4.73;0.80;;;;;;;;;;5031656;28;20123;-56
2023/01/14 08:53:35;;;;;;;6.15;1.10;;;;;;;;;;5034903;28;20022;-57
2023/01/14 08:56:00;;;;;;;;;;;;;;;;;;5030103;28;20142;-56
2023/01/14 08:58:25;;;;;;;6.60;1.05;;;;;;;;;;5030228;28;19963;-58
2023/01/14 09:00:54;;;;;;;5.43;0.88;;;;;;;;;;5031746;28;20025;-56
2023/01/14 09:03:19;;;;;;;8.68;1.02;;;;;;;;;;5030729;28;20055;-56
2023/01/14 09:05:44;;;;;;;7.03;0.90;;;;;;;;;;5028388;28;20017;-58
2023/01/14 09:19:07;;;;;;;5.78;1.00;;;;;;;;;;5043572;28;20492;-58
2023/01/14 09:21:32;;;;;;;6.97;0.90;;;;;;;;;;5034185;28;20048;-57
2023/01/14 09:23:57;;;;;;;7.30;1.05;;;;;;;;;;5016920;28;20060;-58
2023/01/14 09:26:22;;;;;;;5.68;0.98;;;;;;;;;;5024541;28;20316;-58
2023/01/14 09:28:47;;;;;;;5.57;0.90;;;;;;;;;;5029946;28;20029;-56
2023/01/14 09:31:13;;;;;;;6.65;1.13;;;;;;;;;;5038895;28;20060;-57
2023/01/14 09:33:38;;;;;;;5.88;1.00;;;;;;;;;;5030253;28;20383;-55
2023/01/14 09:36:03;;;;;;;8.80;0.98;;;;;;;;;;5030584;28;20017;-56
2023/01/14 09:38:28;;;;;;;9.25;1.20;;;;;;;;;;5036300;23;20070;-54
2023/01/14 09:40:54;;;;;;;7.47;1.10;;;;;;;;;;5012196;28;20435;-53
2023/01/14 09:43:20;;;;;;;7.40;1.00;;;;;;;;;;5012116;28;20022;-54
2023/01/14 09:45:47;;;;;;;7.50;0.95;;;;;;;;;;5011730;28;20033;-54
2023/01/14 09:48:13;;;;;;;7.20;1.17;;;;;;;;;;5025158;28;20040;-55
2023/01/14 09:50:47;;;;;;;7.45;1.00;;;;;;;;;;5017980;28;20033;-56
2023/01/14 09:53:22;;;;;;;7.00;0.93;;;;;;;;;;5011595;28;20018;-51
2023/01/14 09:56:01;;;;;;;7.63;1.17;;;;;;;;;;5010931;28;20072;-56
2023/01/14 09:58:33;;;;;;;6.00;0.80;;;;;;;;;;5030731;28;20017;-52
2023/01/14 10:00:58;;;;;;;5.90;0.82;;;;;;;;;;5030868;28;20065;-53
2023/01/14 10:03:24;;;;;;;5.97;0.80;;;;;;;;;;5031200;28;20061;-52
2023/01/14 10:05:50;;;;;;;;;;;;;;;;;;5016537;28;20026;-55
2023/01/14 10:08:15;;;;;;;5.28;0.65;;;;;;;;;;5010141;28;19982;-50
2023/01/14 10:10:44;;;;;;;6.63;0.90;;;;;;;;;;5005056;28;20060;-51
2023/01/14 10:13:14;;;;;;;7.15;1.30;;;;;;;;;;5008231;28;20101;-55
2023/01/14 10:15:42;;;;;;;7.95;1.00;;;;;;;;;;5010372;28;20049;-52
2023/01/14 10:18:11;;;;;;;7.03;1.08;;;;;;;;;;5011225;28;20021;-51
2023/01/14 10:20:42;;;;;;;6.97;0.90;;;;;;;;;;5010443;28;20018;-51
2023/01/14 10:23:18;;;;;;;9.93;1.10;;;;;;;;;;5009241;28;20026;-51
2023/01/14 10:25:50;;;;;;;8.88;1.40;;;;;;;;;;5008005;28;20022;-52
2023/01/14 10:28:16;;;;;;;5.40;1.15;;;;;;;;;;5010076;28;20076;-50
2023/01/14 10:30:42;;;;;;;7.13;0.85;;;;;;;;;;5009062;28;21941;-50
2023/01/14 10:33:11;;;;;;;5.25;0.60;;;;;;;;;;5001742;28;20105;-52
2023/01/14 10:35:37;;;;;;;4.15;0.80;;;;;;;;;;5002311;28;20030;-54
2023/01/14 10:38:03;;;;;;;5.45;1.00;;;;;;;;;;5008088;28;20030;-55
2023/01/14 10:40:29;;;;;;;5.40;0.85;;;;;;;;;;5008110;28;20390;-50
2023/01/14 10:42:55;;;;;;;5.75;0.80;;;;;;;;;;5010861;28;20100;-50
2023/01/14 10:45:20;;;;;;;6.63;1.00;;;;;;;;;;5010438;28;20112;-50
2023/01/14 10:47:46;;;;;;;6.65;1.00;;;;;;;;;;5014787;28;20076;-56
2023/01/14 10:50:22;;;;;;;6.47;0.90;;;;;;;;;;5014587;28;20553;-54
2023/01/14 10:52:49;;;;;;;6.30;1.10;;;;;;;;;;5008380;28;20030;-51
2023/01/14 10:55:15;;;;;;;7.20;0.90;;;;;;;;;;5011587;28;20032;-56
2023/01/14 10:57:45;;;;;;;6.90;0.80;;;;;;;;;;5003791;28;20032;-56
2023/01/14 11:00:28;;;;;;;6.00;1.10;;;;;;;;;;5013497;28;20120;-55
2023/01/14 11:02:54;;;;;;;4.82;0.80;;;;;;;;;;5013384;28;20499;-51
2023/01/14 11:05:27;;;;;;;5.22;0.77;;;;;;;;;;5013882;28;20053;-55
2023/01/14 11:07:53;;;;;;;8.00;1.08;;;;;;;;;;5013152;28;20076;-52
2023/01/14 11:10:22;;;;;;;9.07;1.30;;;;;;;;;;5013539;28;20045;-54
2023/01/14 11:12:47;;;;;;;6.57;1.20;;;;;;;;;;5009969;28;20030;-56
2023/01/14 11:15:32;;;;;;;6.53;1.37;;;;;;;;;;5013822;28;20088;-51
2023/01/14 11:18:15;;;;;;;5.68;1.00;;;;;;;;;;5012588;28;20455;-55
2023/01/14 11:20:40;;;;;;;5.75;0.98;;;;;;;;;;4996149;28;20019;-58
2023/01/14 11:23:14;;;;;;;5.80;0.83;;;;;;;;;;5014222;28;20375;-54
2023/01/14 11:25:41;;;;;;;8.95;0.93;;;;;;;;;;5013730;28;20044;-51
2023/01/14 11:28:06;;;;;;;4.97;1.00;;;;;;;;;;5012738;28;20026;-52
2023/01/14 11:30:33;;;;;;;7.23;1.20;;;;;;;;;;5012928;28;20032;-58
2023/01/14 11:32:59;;;;;;;8.75;1.38;;;;;;;;;;5014313;28;20414;-50
2023/01/14 11:35:28;;;;;;;6.03;1.02;;;;;;;;;;5012601;28;20069;-56
2023/01/14 11:37:53;;;;;;;4.68;1.02;;;;;;;;;;5008346;28;20502;-51
2023/01/14 11:41:28;;;;;;;5.35;1.20;;;;;;;;;;5011642;28;20038;-52
2023/01/14 11:43:13;;;;;;;4.95;0.90;;;;;;;;;;5011548;28;20025;-53
2023/01/14 11:45:38;;;;;;;5.45;0.82;;;;;;;;;;5010208;28;20026;-57
2023/01/14 11:48:20;;;;;;;4.50;0.80;;;;;;;;;;5012668;28;20499;-50
2023/01/14 11:50:54;;;;;;;5.45;0.80;;;;;;;;;;5005404;28;20053;-51
2023/01/14 11:53:25;;;;;;;6.13;1.10;;;;;;;;;;5013596;28;20021;-51
2023/01/14 11:55:51;;;;;;;4.70;0.77;;;;;;;;;;5012792;28;20494;-51
2023/01/14 11:58:22;;;;;;;4.80;0.90;;;;;;;;;;5008394;28;20502;-50
2023/01/14 12:00:50;;;;;;;5.30;0.98;;;;;;;;;;5010047;28;20022;-55
2023/01/14 12:03:37;;;;;;;7.15;1.10;;;;;;;;;;5007491;28;20471;-51
2023/01/14 12:06:05;;;;;;;5.90;0.98;;;;;;;;;;5004009;28;20087;-51
2023/01/14 12:08:31;;;;;;;5.75;1.00;;;;;;;;;;5008742;28;20045;-52
2023/01/14 12:11:00;;;;;;;6.55;1.30;;;;;;;;;;5021512;28;20026;-50
2023/01/14 12:19:32;;;;;;;5.45;1.08;;;;;;;;;;4949357;29;20031;-51
2023/01/14 12:21:57;;;;;;;6.60;1.10;;;;;;;;;;4950821;29;20027;-49
2023/01/14 12:24:26;;;;;;;8.40;1.17;;;;;;;;;;4974702;28;20058;-49
2023/01/14 12:26:53;;;;;;;6.75;1.10;;;;;;;;;;5014356;28;20040;-49
2023/01/14 12:29:26;;;;;;;7.38;1.30;;;;;;;;;;5012665;28;20018;-49
2023/01/14 12:32:02;;;;;;;6.15;1.15;;;;;;;;;;5014435;28;20060;-50
2023/01/14 12:34:48;;;;;;;5.70;1.20;;;;;;;;;;5016321;28;20043;-50
2023/01/14 12:37:24;;;;;;;6.53;0.95;;;;;;;;;;5022044;28;20041;-49
2023/01/14 12:45:45;;;;;;;5.97;0.93;;;;;;;;;;5012421;28;20032;-49
2023/01/14 12:48:18;;;;;;;6.03;1.05;;;;;;;;;;5012507;28;20018;-49
2023/01/14 12:50:43;;;;;;;;;;;;;;;;;;5012405;28;20037;-49
2023/01/14 12:53:14;;;;;;;6.65;1.00;;;;;;;;;;5023198;28;19909;-49
2023/01/14 12:55:40;;;;;;;8.32;1.60;;;;;;;;;;5007969;28;20025;-50
2023/01/14 12:58:14;;;;;;;6.47;0.82;;;;;;;;;;5001563;28;20068;-50
2023/01/14 13:00:39;;;;;;;7.00;1.20;;;;;;;;;;5009342;28;20021;-49
2023/01/14 13:03:07;;;;;;;7.27;1.10;;;;;;;;;;5021145;28;20467;-49
2023/01/14 13:05:37;;;;;;;6.57;1.00;;;;;;;;;;5016849;28;20075;-49
2023/01/14 13:08:03;;;;;;;5.85;1.08;;;;;;;;;;5013202;28;20060;-50
2023/01/14 13:10:33;;;;;;;5.63;1.15;;;;;;;;;;5009352;28;20046;-50
2023/01/14 13:12:59;;;;;;;6.30;1.20;;;;;;;;;;5026947;28;20013;-51
2023/01/14 13:15:26;;;;;;;8.55;1.27;;;;;;;;;;5012619;28;20069;-49
2023/01/14 13:17:54;;;;;;;5.47;1.27;;;;;;;;;;5016714;28;20133;-49
2023/01/14 13:20:20;;;;;;;7.18;1.00;;;;;;;;;;5011633;28;20415;-50
2023/01/14 13:22:49;;;;;;;6.35;1.35;;;;;;;;;;5009860;28;20410;-50
2023/01/14 13:25:32;;;;;;;7.32;1.40;;;;;;;;;;5027037;28;20017;-51
2023/01/14 13:27:58;;;;;;;7.68;1.50;;;;;;;;;;5022057;28;20360;-51
2023/01/14 13:30:24;;;;;;;6.68;1.15;;;;;;;;;;5011261;28;20033;-50
2023/01/14 13:32:52;;;;;;;8.52;1.15;;;;;;;;;;5011692;28;20101;-50
2023/01/14 13:35:18;;;;;;;7.25;1.10;;;;;;;;;;5011406;28;20116;-49
2023/01/14 13:37:44;;;;;;;7.22;1.30;;;;;;;;;;5012947;28;20022;-49
2023/01/14 13:40:38;;;;;;;5.40;1.00;;;;;;;;;;5009462;28;20025;-50
2023/01/14 13:43:06;;;;;;;7.70;1.65;;;;;;;;;;5011844;28;20030;-50
2023/01/14 13:45:33;;;;;;;7.95;1.08;;;;;;;;;;5002424;28;20029;-50
2023/01/14 13:47:59;;;;;;;7.22;1.40;;;;;;;;;;5003721;28;20080;-50
2023/01/14 13:50:24;;;;;;;7.47;1.20;;;;;;;;;;5009986;28;20048;-51
2023/01/14 13:53:13;;;;;;;8.10;1.25;;;;;;;;;;5010814;28;20014;-50
2023/01/14 13:55:38;;;;;;;4.80;1.17;;;;;;;;;;4995947;28;20493;-49
2023/01/14 13:58:06;;;;;;;7.43;1.23;;;;;;;;;;5011252;28;20109;-49
2023/01/14 14:00:40;;;;;;;8.68;1.40;;;;;;;;;;5011031;28;20444;-49
2023/01/14 14:03:23;;;;;;;8.55;1.20;;;;;;;;;;5010004;28;20064;-50
2023/01/14 14:06:08;;;;;;;5.75;1.00;;;;;;;;;;5017793;28;20026;-50
2023/01/14 14:08:34;;;;;;;9.32;1.38;;;;;;;;;;5010477;28;20486;-50
2023/01/14 14:11:01;;;;;;;7.73;1.17;;;;;;;;;;5010696;28;20026;-51
2023/01/14 14:16:18;;;;;;;7.03;1.15;;;;;;;;;;5004463;28;20083;-50
2023/01/14 14:18:52;;;;;;;8.60;1.30;;;;;;;;;;5010668;28;20046;-50
2023/01/14 14:21:20;;;;;;;6.03;1.38;;;;;;;;;;5010482;28;20353;-49
2023/01/14 14:23:50;;;;;;;7.80;1.30;;;;;;;;;;5010896;28;20105;-49
2023/01/14 14:26:17;;;;;;;9.25;1.42;;;;;;;;;;5008093;28;20439;-49
2023/01/14 14:28:44;;;;;;;7.72;1.25;;;;;;;;;;5010834;28;20030;-49
2023/01/14 14:31:14;;;;;;;8.73;1.58;;;;;;;;;;5010707;28;20064;-50
2023/01/14 14:33:40;;;;;;;7.07;1.45;;;;;;;;;;5009529;28;20021;-49
2023/01/14 14:36:12;;;;;;;8.57;1.40;;;;;;;;;;5010404;28;20028;-49
2023/01/14 14:38:37;;;;;;;10.15;1.58;;;;;;;;;;5010718;28;20030;-50
2023/01/14 14:41:07;;;;;;;9.88;1.73;;;;;;;;;;4999968;28;20464;-50
2023/01/14 14:43:32;;;;;;;6.00;1.27;;;;;;;;;;5005723;28;20821;-49
2023/01/14 14:45:59;;;;;;;7.77;1.17;;;;;;;;;;5006770;28;20112;-50
2023/01/14 14:48:28;;;;;;;7.18;1.25;;;;;;;;;;5018677;28;20041;-49
2023/01/14 14:50:53;;;;;;;7.45;1.38;;;;;;;;;;5010012;28;20486;-50
2023/01/14 14:53:26;;;;;;;10.60;1.52;;;;;;;;;;5010547;28;20022;-52
2023/01/14 14:55:53;;;;;;;5.40;1.13;;;;;;;;;;5010381;28;20498;-50
2023/01/14 14:58:19;;;;;;;6.15;1.10;;;;;;;;;;5008232;28;20475;-49
2023/01/14 15:00:45;;;;;;;9.07;1.20;;;;;;;;;;5008703;28;20018;-50
2023/01/14 15:03:16;;;;;;;7.43;1.67;;;;;;;;;;5009528;28;20422;-51
2023/01/14 15:05:42;;;;;;;6.25;1.10;;;;;;;;;;5010073;28;20387;-50
2023/01/14 15:08:09;;;;;;;5.70;1.10;;;;;;;;;;5010723;28;20033;-50
2023/01/14 15:10:35;;;;;;;6.90;1.10;;;;;;;;;;5010307;28;20026;-50
2023/01/14 15:13:01;;;;;;;5.25;1.25;;;;;;;;;;5009469;28;20109;-50
2023/01/14 15:15:28;;;;;;;7.90;1.05;;;;;;;;;;5009711;28;20513;-50
2023/01/14 15:17:53;;;;;;;;;;;;;;;;;;5011009;28;20022;-50
2023/01/14 15:20:19;;;;;;;8.50;1.10;;;;;;;;;;5010330;28;19913;-50
2023/01/14 15:22:46;;;;;;;9.40;1.20;;;;;;;;;;5009257;28;20036;-50
2023/01/14 15:25:15;;;;;;;8.70;1.23;;;;;;;;;;5010205;28;20029;-51
2023/01/14 15:27:40;;;;;;;7.50;1.23;;;;;;;;;;5009954;28;20136;-50
2023/01/14 15:30:15;;;;;;;7.53;1.10;;;;;;;;;;5010072;28;20110;-50
2023/01/14 15:32:40;;;;;;;8.98;1.52;;;;;;;;;;5010310;28;20029;-50
2023/01/14 15:35:06;;;;;;;5.57;1.23;;;;;;;;;;5013937;28;20026;-51
2023/01/14 15:37:32;;;;;;;4.25;0.98;;;;;;;;;;5013759;28;20056;-52